Time;durP1;ratioP1;P1;durP2;ratioP2;P2;SDS_P1;SDS_P2;PMS_P1;PMS_P2;Temp;Humidity;BMP_temperature;BMP_pressure;BME280_temperature;BME280_humidity;BME280_pressure;Samples;Min_cycle;Max_cycle;Signal;HPM_P1;HPM_P2
2022/05/21 00:02:05;;;;;;;5.33;3.70;;;19.10;99.90;;;;;;5051717;28;20503;-48
2022/05/21 00:04:32;;;;;;;6.20;2.77;;;19.10;99.90;;;;;;5118396;22;20516;-49
2022/05/21 00:06:59;;;;;;;6.10;3.27;;;19.20;99.90;;;;;;5071694;28;20483;-44
2022/05/21 00:09:27;;;;;;;3.17;2.57;;;19.20;99.90;;;;;;5071177;28;20933;-44
2022/05/21 00:11:54;;;;;;;5.80;2.70;;;19.10;99.90;;;;;;5071604;28;20546;-44
2022/05/21 00:14:21;;;;;;;7.67;3.20;;;18.90;99.90;;;;;;5071755;28;20533;-44
2022/05/21 00:16:50;;;;;;;4.90;2.80;;;18.80;99.90;;;;;;5071566;28;20436;-43
2022/05/21 00:19:17;;;;;;;3.57;2.60;;;18.90;99.90;;;;;;5070757;28;20472;-48
2022/05/21 00:21:44;;;;;;;7.17;2.87;;;19.00;99.90;;;;;;5071516;28;20449;-45
2022/05/21 00:24:11;;;;;;;4.70;2.47;;;19.10;99.90;;;;;;5071578;28;20502;-49
2022/05/21 00:26:38;;;;;;;3.27;2.80;;;19.00;99.90;;;;;;5071815;28;20519;-44
2022/05/21 00:29:05;;;;;;;5.50;3.80;;;19.00;99.90;;;;;;5071357;28;20865;-44
2022/05/21 00:31:32;;;;;;;9.70;3.20;;;19.10;99.90;;;;;;5071488;28;20445;-44
2022/05/21 00:34:01;;;;;;;5.30;3.17;;;19.20;99.90;;;;;;5071169;28;20511;-45
2022/05/21 00:36:29;;;;;;;8.30;3.77;;;19.20;99.90;;;;;;5071588;28;20451;-44
2022/05/21 00:38:56;;;;;;;5.33;3.30;;;19.20;99.90;;;;;;5070871;28;20482;-47
2022/05/21 00:41:23;;;;;;;3.70;2.67;;;19.20;99.90;;;;;;5071375;28;20472;-44
2022/05/21 00:43:53;;;;;;;5.47;2.97;;;19.00;99.90;;;;;;5071087;28;20488;-44
2022/05/21 00:46:22;;;;;;;6.50;3.07;;;19.00;99.90;;;;;;5071407;28;20444;-44
2022/05/21 00:48:56;;;;;;;4.60;3.27;;;18.80;99.90;;;;;;5070832;28;20436;-44
2022/05/21 00:51:29;;;;;;;5.23;2.90;;;18.90;99.90;;;;;;5071097;28;20439;-48
2022/05/21 00:53:59;;;;;;;4.70;3.33;;;18.90;99.90;;;;;;5071318;28;20488;-44
2022/05/21 00:56:27;;;;;;;6.43;3.70;;;18.90;99.90;;;;;;5071155;28;20498;-46
2022/05/21 01:01:44;;;;;;;6.07;3.00;;;18.90;99.90;;;;;;5071026;28;20823;-44
2022/05/21 01:04:11;;;;;;;5.50;3.00;;;18.80;99.90;;;;;;5071185;28;20521;-44
2022/05/21 01:06:40;;;;;;;5.87;3.40;;;18.90;99.90;;;;;;5071346;28;20444;-45
2022/05/21 01:09:14;;;;;;;6.97;3.23;;;19.00;99.90;;;;;;5071189;28;20510;-44
2022/05/21 01:11:41;;;;;;;6.83;3.20;;;19.00;99.90;;;;;;5070908;28;20436;-44
2022/05/21 01:14:11;;;;;;;4.73;3.10;;;19.10;99.90;;;;;;5070635;28;20476;-44
2022/05/21 01:16:39;;;;;;;5.63;3.30;;;19.10;99.90;;;;;;5070991;28;20471;-44
2022/05/21 01:19:08;;;;;;;5.60;3.53;;;18.90;99.90;;;;;;5070402;28;20449;-45
2022/05/21 01:21:36;;;;;;;5.40;3.50;;;18.50;99.90;;;;;;5072780;28;20530;-48
2022/05/21 01:24:05;;;;;;;5.70;3.00;;;18.20;99.90;;;;;;5074864;28;20475;-47
2022/05/21 01:26:33;;;;;;;4.80;3.47;;;18.10;99.90;;;;;;5074976;28;20444;-44
2022/05/21 01:29:03;;;;;;;3.50;2.93;;;18.20;99.90;;;;;;5074441;28;20933;-44
2022/05/21 01:31:32;;;;;;;6.57;4.37;;;18.10;99.90;;;;;;5074860;28;20436;-44
2022/05/21 01:33:59;;;;;;;5.60;2.80;;;18.10;99.90;;;;;;5074229;28;20472;-44
2022/05/21 01:36:27;;;;;;;7.10;3.80;;;18.20;99.90;;;;;;5074502;28;20450;-44
2022/05/21 01:38:54;;;;;;;6.03;4.10;;;18.40;99.90;;;;;;5074446;28;20444;-48
2022/05/21 01:41:22;;;;;;;4.30;3.40;;;18.50;99.90;;;;;;5074461;28;20440;-44
2022/05/21 01:46:34;;;;;;;4.47;2.90;;;18.50;99.90;;;;;;5074346;28;20427;-44
2022/05/21 01:49:01;;;;;;;9.53;4.10;;;18.30;99.90;;;;;;5074054;28;20436;-45
2022/05/21 01:51:28;;;;;;;7.17;3.40;;;18.20;99.90;;;;;;5074472;28;20468;-46
2022/05/21 01:53:54;;;;;;;4.90;3.43;;;17.90;99.90;;;;;;5074260;28;20521;-45
2022/05/21 01:56:23;;;;;;;5.30;3.40;;;17.80;99.90;;;;;;5074066;28;20436;-45
2022/05/21 01:58:50;;;;;;;5.73;3.40;;;17.60;99.90;;;;;;5073956;28;20493;-44
2022/05/21 02:01:17;;;;;;;6.00;3.80;;;17.60;99.90;;;;;;5073867;28;20468;-44
2022/05/21 02:03:44;;;;;;;5.47;3.80;;;17.50;99.90;;;;;;5074088;28;20483;-44
2022/05/21 02:06:12;;;;;;;7.53;3.27;;;17.60;99.90;;;;;;5074385;28;20494;-44
2022/05/21 02:08:39;;;;;;;4.43;3.67;;;17.80;99.90;;;;;;5074066;28;20445;-44
2022/05/21 02:11:06;;;;;;;3.90;3.53;;;17.80;99.90;;;;;;5073724;28;20493;-45
2022/05/21 02:13:35;;;;;;;7.73;4.03;;;17.90;99.90;;;;;;5073666;28;20502;-44
2022/05/21 02:16:02;;;;;;;6.23;3.37;;;18.00;99.90;;;;;;5073978;28;20472;-47
2022/05/21 02:18:29;;;;;;;4.10;3.50;;;18.10;99.90;;;;;;5073315;28;20470;-44
2022/05/21 02:20:56;;;;;;;6.50;4.60;;;17.90;99.90;;;;;;5073689;28;20476;-48
2022/05/21 02:23:24;;;;;;;8.27;5.00;;;17.80;99.90;;;;;;5073754;28;20444;-45
2022/05/21 02:25:51;;;;;;;4.20;3.60;;;17.80;99.90;;;;;;5073580;28;20569;-46
2022/05/21 02:28:18;;;;;;;7.20;4.00;;;18.00;99.90;;;;;;5073811;28;20468;-43
2022/05/21 02:30:47;;;;;;;4.73;3.93;;;18.10;99.90;;;;;;5073300;28;20539;-46
2022/05/21 02:33:14;;;;;;;4.00;3.37;;;18.20;99.90;;;;;;5073357;28;20505;-44
2022/05/21 02:35:41;;;;;;;7.70;3.77;;;18.30;99.90;;;;;;5073354;28;20585;-47
2022/05/21 02:40:53;;;;;;;11.90;4.63;;;17.80;99.90;;;;;;5073201;28;20428;-44
2022/05/21 02:43:20;;;;;;;6.10;4.70;;;17.90;99.90;;;;;;5073411;28;20471;-46
2022/05/21 02:45:48;;;;;;;7.00;3.80;;;18.10;99.90;;;;;;5073213;28;20980;-43
2022/05/21 02:48:15;;;;;;;3.30;2.97;;;18.10;99.90;;;;;;5073169;28;20470;-43
2022/05/21 02:50:42;;;;;;;8.57;3.40;;;18.00;99.90;;;;;;5072861;28;20436;-48
2022/05/21 02:53:16;;;;;;;4.63;3.07;;;17.90;99.90;;;;;;5073405;28;20441;-44
2022/05/21 02:55:43;;;;;;;7.07;3.67;;;17.80;99.90;;;;;;5073110;28;21054;-45
2022/05/21 02:58:10;;;;;;;3.50;2.97;;;18.00;99.90;;;;;;5072934;28;20953;-43
2022/05/21 03:00:37;;;;;;;3.73;3.33;;;18.20;99.90;;;;;;5072524;28;20474;-45
2022/05/21 03:03:05;;;;;;;8.53;2.97;;;18.30;99.90;;;;;;5072806;28;20475;-44
2022/05/21 03:05:32;;;;;;;6.27;3.47;;;18.50;99.90;;;;;;5072653;28;20548;-44
2022/05/21 03:10:20;;;;;;;8.73;3.90;;;18.50;99.90;;;;;;5072619;28;20467;-48
2022/05/21 03:10:47;;;;;;;5.77;4.80;;;18.50;99.90;;;;;;5072508;28;20444;-45
2022/05/21 03:13:14;;;;;;;7.23;3.23;;;18.50;99.90;;;;;;5072724;28;20536;-45
2022/05/21 03:15:41;;;;;;;6.87;3.67;;;18.50;99.90;;;;;;5072526;28;20989;-44
2022/05/21 03:18:11;;;;;;;5.23;4.40;;;18.10;99.90;;;;;;5072392;28;20472;-47
2022/05/21 03:20:39;;;;;;;7.83;3.20;;;18.10;99.90;;;;;;5072258;28;20510;-44
2022/05/21 03:23:07;;;;;;;3.53;3.20;;;18.20;99.90;;;;;;5072650;28;20476;-49
2022/05/21 03:25:34;;;;;;;4.97;3.00;;;18.30;99.90;;;;;;5072139;28;20496;-49
2022/05/21 03:28:02;;;;;;;7.13;4.47;;;18.40;99.90;;;;;;5072384;28;20472;-45
2022/05/21 03:30:30;;;;;;;4.80;3.80;;;18.40;99.90;;;;;;5072311;28;20497;-47
2022/05/21 03:32:58;;;;;;;4.23;2.90;;;18.20;99.90;;;;;;5072620;28;20494;-47
2022/05/21 03:35:27;;;;;;;7.00;3.57;;;17.90;99.90;;;;;;5072127;28;20480;-49
2022/05/21 03:37:55;;;;;;;6.50;3.17;;;17.60;99.90;;;;;;5072426;28;20499;-44
2022/05/21 03:40:26;;;;;;;4.23;3.50;;;17.50;99.90;;;;;;5071934;28;20444;-44
2022/05/21 03:42:54;;;;;;;4.40;3.50;;;17.40;99.90;;;;;;5072215;28;20518;-43
2022/05/21 03:45:22;;;;;;;5.70;3.70;;;17.30;99.90;;;;;;5071546;28;20500;-44
2022/05/21 03:47:50;;;;;;;6.63;3.57;;;17.30;99.90;;;;;;5072064;28;20476;-44
2022/05/21 03:50:19;;;;;;;4.03;3.50;;;17.40;99.90;;;;;;5071790;28;20440;-44
2022/05/21 03:52:48;;;;;;;6.20;2.80;;;17.70;99.90;;;;;;5071992;28;20472;-44
2022/05/21 03:55:15;;;;;;;5.57;3.27;;;17.80;99.90;;;;;;5071853;28;20563;-45
2022/05/21 03:57:42;;;;;;;5.20;3.67;;;17.90;99.90;;;;;;5071854;28;20436;-49
2022/05/21 04:00:12;;;;;;;6.03;4.10;;;17.90;99.90;;;;;;5071852;28;20468;-44
2022/05/21 04:02:39;;;;;;;6.43;3.40;;;17.70;99.90;;;;;;5071741;28;20476;-47
2022/05/21 04:05:08;;;;;;;8.23;3.90;;;17.60;99.90;;;;;;5071622;28;20471;-44
2022/05/21 04:07:36;;;;;;;6.30;3.47;;;17.50;99.90;;;;;;5071434;28;20475;-47
2022/05/21 04:10:06;;;;;;;6.90;4.37;;;17.50;99.90;;;;;;5071773;28;20524;-45
2022/05/21 04:12:33;;;;;;;6.53;3.97;;;17.50;99.90;;;;;;5071733;28;20475;-44
2022/05/21 04:15:00;;;;;;;5.17;4.00;;;17.30;99.90;;;;;;5071355;28;20551;-46
2022/05/21 04:17:27;;;;;;;5.37;4.30;;;17.20;99.90;;;;;;5071349;28;20440;-44
2022/05/21 04:19:55;;;;;;;9.57;5.10;;;17.20;99.90;;;;;;5071333;28;20444;-48
2022/05/21 04:22:22;;;;;;;6.43;3.83;;;17.30;99.90;;;;;;5071379;28;20444;-46
2022/05/21 04:24:48;;;;;;;5.70;5.10;;;17.30;99.90;;;;;;5071330;28;20494;-44
2022/05/21 04:27:17;;;;;;;9.70;4.17;;;17.30;99.90;;;;;;5071551;28;20444;-44
2022/05/21 04:29:44;;;;;;;5.13;3.90;;;17.40;99.90;;;;;;5071111;28;20522;-47
2022/05/21 04:32:11;;;;;;;6.00;4.83;;;17.20;99.90;;;;;;5071769;28;20519;-45
2022/05/21 04:34:38;;;;;;;7.10;4.97;;;17.30;99.90;;;;;;5071656;28;20496;-44
2022/05/21 04:37:05;;;;;;;5.10;4.50;;;17.10;99.90;;;;;;5071319;28;20463;-48
2022/05/21 04:39:32;;;;;;;5.93;5.30;;;17.20;99.90;;;;;;5071497;28;20494;-44
2022/05/21 04:42:00;;;;;;;7.77;4.50;;;17.30;99.90;;;;;;5071317;28;20543;-47
2022/05/21 04:44:31;;;;;;;7.93;5.33;;;17.50;99.90;;;;;;5070896;28;20460;-48
2022/05/21 04:46:58;;;;;;;5.10;4.33;;;17.40;99.90;;;;;;5071019;28;20948;-44
2022/05/21 04:49:25;;;;;;;7.70;5.10;;;17.60;99.90;;;;;;5071378;28;20495;-44
2022/05/21 04:51:52;;;;;;;6.93;4.83;;;17.70;99.90;;;;;;5071179;28;20495;-44
2022/05/21 04:54:19;;;;;;;6.00;5.20;;;17.80;99.90;;;;;;5071006;28;20496;-45
2022/05/21 04:56:46;;;;;;;9.23;5.13;;;17.80;99.90;;;;;;5073127;28;20549;-45
2022/05/21 04:59:13;;;;;;;5.80;4.47;;;17.90;99.90;;;;;;5075240;28;20435;-44
2022/05/21 05:01:42;;;;;;;5.90;5.10;;;18.00;99.90;;;;;;5075114;28;20531;-44
2022/05/21 05:04:10;;;;;;;6.27;4.50;;;18.10;99.90;;;;;;5075040;28;20468;-44
2022/05/21 05:06:38;;;;;;;7.60;4.80;;;18.10;99.90;;;;;;5074711;28;20466;-45
2022/05/21 05:09:05;;;;;;;8.40;4.87;;;18.30;99.90;;;;;;5074857;28;20499;-47
2022/05/21 05:11:32;;;;;;;5.93;4.90;;;18.40;99.90;;;;;;5075013;28;20449;-44
2022/05/21 05:13:59;;;;;;;7.87;4.67;;;18.50;99.90;;;;;;5075130;28;20495;-45
2022/05/21 05:16:27;;;;;;;7.07;4.63;;;18.60;99.90;;;;;;5074966;28;20480;-43
2022/05/21 05:18:55;;;;;;;6.47;5.10;;;18.60;99.90;;;;;;5074746;28;20440;-44
2022/05/21 05:21:22;;;;;;;7.97;5.20;;;18.60;99.90;;;;;;5074697;28;20473;-44
2022/05/21 05:23:49;;;;;;;7.50;4.47;;;18.50;99.90;;;;;;5074784;28;20452;-44
2022/05/21 05:26:16;;;;;;;10.17;5.90;;;18.40;99.90;;;;;;5074875;28;20534;-46
2022/05/21 05:28:44;;;;;;;9.33;6.20;;;18.40;99.90;;;;;;5074558;28;20889;-44
2022/05/21 05:31:12;;;;;;;6.03;5.43;;;18.10;99.90;;;;;;5074739;28;20451;-44
2022/05/21 05:33:38;;;;;;;11.00;6.27;;;18.10;99.90;;;;;;5074581;28;20501;-44
2022/05/21 05:36:08;;;;;;;5.97;5.40;;;18.00;99.90;;;;;;5074406;28;20476;-44
2022/05/21 05:38:35;;;;;;;11.60;6.83;;;17.90;99.90;;;;;;5074373;28;20482;-44
2022/05/21 05:41:02;;;;;;;8.70;6.00;;;18.00;99.90;;;;;;5074373;28;20475;-44
2022/05/21 05:43:29;;;;;;;8.53;5.77;;;18.20;99.90;;;;;;5074115;28;20815;-44
2022/05/21 05:45:58;;;;;;;10.60;5.80;;;18.40;99.90;;;;;;5074316;28;20722;-44
2022/05/21 05:48:26;;;;;;;5.67;4.80;;;18.40;99.90;;;;;;5073914;28;20495;-47
2022/05/21 05:50:53;;;;;;;7.57;5.50;;;18.50;99.90;;;;;;5073738;28;20849;-44
2022/05/21 05:53:21;;;;;;;6.77;5.50;;;18.60;99.90;;;;;;5074100;28;20475;-46
2022/05/21 05:55:49;;;;;;;8.43;6.40;;;18.60;99.90;;;;;;5073930;28;20476;-44
2022/05/21 06:01:00;;;;;;;9.80;5.40;;;18.70;99.90;;;;;;5073997;28;20424;-43
2022/05/21 06:03:27;;;;;;;6.63;6.03;;;18.80;99.90;;;;;;5074094;28;20959;-44
2022/05/21 06:05:54;;;;;;;8.17;5.20;;;18.90;99.90;;;;;;5116072;22;20531;-49
2022/05/21 06:08:23;;;;;;;6.43;5.37;;;18.90;99.90;;;;;;5053058;28;20934;-48
2022/05/21 06:10:50;;;;;;;5.87;5.27;;;18.90;99.90;;;;;;5053644;28;20484;-45
2022/05/21 06:13:17;;;;;;;9.83;5.60;;;18.90;99.90;;;;;;5053995;28;20445;-45
2022/05/21 06:15:44;;;;;;;8.47;6.10;;;18.90;99.90;;;;;;5053930;28;20564;-44
2022/05/21 06:18:14;;;;;;;5.67;5.13;;;19.00;99.90;;;;;;5053487;28;21019;-45
2022/05/21 06:20:42;;;;;;;6.23;5.57;;;19.00;99.90;;;;;;5053556;28;20472;-45
2022/05/21 06:23:09;;;;;;;9.53;6.20;;;19.00;99.90;;;;;;5053632;28;20583;-48
2022/05/21 06:25:37;;;;;;;6.33;5.60;;;19.10;99.90;;;;;;5053377;28;20493;-45
2022/05/21 06:28:06;;;;;;;11.83;6.60;;;19.10;99.90;;;;;;5053874;28;20484;-45
2022/05/21 06:30:34;;;;;;;8.33;7.37;;;19.10;99.90;;;;;;5053608;28;20502;-45
2022/05/21 06:33:12;;;;;;;7.80;6.43;;;19.10;99.90;;;;;;5053464;28;20922;-44
2022/05/21 06:35:39;;;;;;;8.70;5.97;;;19.10;99.90;;;;;;5053090;28;20477;-45
2022/05/21 06:38:06;;;;;;;7.70;6.60;;;19.20;99.90;;;;;;5053133;28;20533;-47
2022/05/21 06:40:33;;;;;;;7.50;6.20;;;19.20;99.90;;;;;;5053247;28;20503;-45
2022/05/21 06:43:01;;;;;;;7.23;6.43;;;19.20;99.90;;;;;;5053357;28;20445;-45
2022/05/21 06:45:29;;;;;;;9.80;6.73;;;19.20;99.90;;;;;;5053210;28;20985;-45
2022/05/21 06:48:00;;;;;;;7.70;6.10;;;19.20;99.90;;;;;;5053342;28;20839;-45
2022/05/21 06:50:27;;;;;;;7.30;6.60;;;19.30;99.90;;;;;;5052893;28;20441;-45
2022/05/21 06:52:55;;;;;;;9.80;6.10;;;19.30;99.90;;;;;;5052998;28;20445;-44
2022/05/21 06:55:22;;;;;;;7.80;6.70;;;19.30;99.90;;;;;;5052975;28;20461;-46
2022/05/21 06:57:49;;;;;;;7.27;6.33;;;19.30;99.90;;;;;;5053040;28;20472;-49
2022/05/21 07:00:19;;;;;;;7.40;5.83;;;19.30;99.90;;;;;;5052853;28;20499;-45
2022/05/21 07:02:47;;;;;;;8.70;5.80;;;19.40;99.90;;;;;;5052979;28;20445;-46
2022/05/21 07:07:59;;;;;;;8.27;6.50;;;19.50;99.90;;;;;;5053089;28;20420;-44
2022/05/21 07:10:28;;;;;;;12.23;6.30;;;19.60;99.90;;;;;;5052696;28;20714;-45
2022/05/21 07:12:55;;;;;;;6.70;5.47;;;19.50;99.90;;;;;;5052762;28;20961;-45
2022/05/21 07:15:23;;;;;;;7.77;6.00;;;19.60;99.90;;;;;;5052618;28;21064;-45
2022/05/21 07:17:50;;;;;;;8.43;6.03;;;19.60;99.90;;;;;;5052143;28;21082;-45
2022/05/21 07:20:21;;;;;;;6.30;5.73;;;19.60;99.90;;;;;;5051836;28;20484;-45
2022/05/21 07:22:49;;;;;;;6.10;5.50;;;19.60;99.90;;;;;;5052699;28;20468;-44
2022/05/21 07:25:19;;;;;;;8.20;7.00;;;19.60;99.90;;;;;;5052361;28;20469;-45
2022/05/21 07:27:46;;;;;;;8.10;6.47;;;19.70;99.90;;;;;;5052365;28;20507;-45
2022/05/21 07:30:14;;;;;;;8.10;6.10;;;19.60;99.90;;;;;;5052158;28;20537;-45
2022/05/21 07:32:44;;;;;;;6.23;5.53;;;19.60;99.90;;;;;;5052329;28;20441;-44
2022/05/21 07:35:13;;;;;;;7.50;6.37;;;19.50;99.90;;;;;;5052145;28;20469;-45
2022/05/21 07:37:41;;;;;;;8.57;6.40;;;19.50;99.90;;;;;;5052303;28;20572;-45
2022/05/21 07:40:10;;;;;;;8.73;7.23;;;19.50;99.90;;;;;;5052341;28;20475;-45
2022/05/21 07:42:37;;;;;;;7.10;5.50;;;19.40;99.90;;;;;;5052218;28;20995;-45
2022/05/21 07:45:06;;;;;;;8.80;6.63;;;19.40;99.90;;;;;;5052282;28;20496;-48
2022/05/21 07:47:33;;;;;;;8.43;6.00;;;19.40;99.90;;;;;;5052093;28;20441;-48
2022/05/21 07:50:01;;;;;;;7.47;6.77;;;19.30;99.90;;;;;;5051746;28;20473;-46
2022/05/21 07:52:30;;;;;;;9.30;6.83;;;19.30;99.90;;;;;;5051736;28;20496;-46
2022/05/21 07:54:57;;;;;;;7.80;6.70;;;19.10;99.90;;;;;;5051824;28;20465;-45
2022/05/21 07:57:25;;;;;;;7.77;6.90;;;18.90;99.90;;;;;;5051799;28;20564;-46
2022/05/21 07:59:52;;;;;;;9.10;7.17;;;18.80;99.90;;;;;;5051361;28;20868;-45
2022/05/21 08:02:20;;;;;;;9.30;6.80;;;18.80;99.90;;;;;;5052036;28;21003;-45
2022/05/21 08:04:48;;;;;;;7.90;6.80;;;18.80;99.90;;;;;;5051654;28;20469;-46
2022/05/21 08:07:18;;;;;;;9.70;6.60;;;19.00;99.90;;;;;;5051577;28;20460;-45
2022/05/21 08:09:45;;;;;;;7.60;6.67;;;19.00;99.90;;;;;;5051758;28;20453;-45
2022/05/21 08:12:14;;;;;;;8.37;6.70;;;19.10;99.90;;;;;;5051653;28;20477;-47
2022/05/21 08:14:41;;;;;;;8.20;7.50;;;19.20;99.90;;;;;;5051755;28;20476;-45
2022/05/21 08:17:09;;;;;;;10.40;7.90;;;19.20;99.90;;;;;;5051321;28;20534;-50
2022/05/21 08:19:36;;;;;;;9.67;8.67;;;19.20;99.90;;;;;;5051352;28;20477;-46
2022/05/21 08:27:30;;;;;;;11.90;9.53;;;19.50;99.90;;;;;;5051783;28;20432;-46
2022/05/21 08:29:57;;;;;;;10.40;9.20;;;19.50;99.90;;;;;;5050939;28;20491;-46
2022/05/21 08:32:24;;;;;;;10.60;7.47;;;19.60;99.90;;;;;;5051632;28;20507;-46
2022/05/21 08:34:52;;;;;;;8.80;7.97;;;19.60;99.90;;;;;;5051492;28;20457;-46
2022/05/21 08:37:20;;;;;;;8.53;7.50;;;19.70;99.90;;;;;;5051492;28;20512;-45
2022/05/21 08:39:48;;;;;;;8.23;7.50;;;19.60;99.90;;;;;;5051109;28;20451;-45
2022/05/21 08:42:20;;;;;;;10.90;8.23;;;19.60;99.90;;;;;;5051355;28;20532;-45
2022/05/21 08:44:49;;;;;;;8.23;7.43;;;19.70;99.90;;;;;;5051530;28;20503;-45
2022/05/21 08:47:22;;;;;;;9.23;6.97;;;19.80;99.90;;;;;;5051485;28;20532;-48
2022/05/21 08:49:56;;;;;;;11.30;7.20;;;19.70;99.90;;;;;;5050896;28;20854;-46
2022/05/21 08:52:27;;;;;;;9.07;7.10;;;19.60;99.90;;;;;;5051246;28;20441;-46
2022/05/21 08:54:59;;;;;;;7.77;7.00;;;19.70;99.90;;;;;;5051014;28;20623;-45
2022/05/21 08:57:29;;;;;;;6.00;5.40;;;19.90;99.90;;;;;;5051343;28;20513;-46
2022/05/21 09:00:03;;;;;;;5.47;4.97;;;20.00;99.90;;;;;;5051063;28;20810;-46
2022/05/21 09:02:34;;;;;;;11.57;5.87;;;20.00;99.90;;;;;;5051089;28;20825;-46
2022/05/21 09:05:01;;;;;;;6.47;5.70;;;20.20;99.90;;;;;;5051083;28;20501;-46
2022/05/21 09:07:38;;;;;;;7.47;5.73;;;20.20;99.90;;;;;;5050971;28;20438;-46
2022/05/21 09:10:21;;;;;;;6.93;6.20;;;20.30;99.90;;;;;;5051068;28;20453;-45
2022/05/21 09:12:57;;;;;;;8.47;5.97;;;20.40;99.90;;;;;;5051294;28;20505;-46
2022/05/21 09:18:14;;;;;;;5.60;5.10;;;20.50;99.90;;;;;;5050725;28;20480;-46
2022/05/21 09:20:49;;;;;;;7.60;5.57;;;20.60;99.90;;;;;;5050811;28;20538;-46
2022/05/21 09:23:16;;;;;;;9.67;5.33;;;20.60;99.90;;;;;;5050864;28;20498;-45
2022/05/21 09:25:44;;;;;;;19.97;8.17;;;20.60;99.90;;;;;;5050669;28;20461;-47
2022/05/21 09:28:12;;;;;;;6.57;5.87;;;20.60;99.90;;;;;;5050709;28;20496;-47
2022/05/21 09:30:41;;;;;;;8.17;5.83;;;20.50;99.90;;;;;;5050661;28;20499;-47
2022/05/21 09:33:26;;;;;;;6.33;5.70;;;20.60;99.90;;;;;;5050841;28;20476;-46
2022/05/21 09:35:55;;;;;;;13.20;5.23;;;20.40;99.90;;;;;;5050682;28;20471;-49
2022/05/21 09:38:25;;;;;;;21.63;6.50;;;20.40;99.90;;;;;;5051053;28;20563;-45
2022/05/21 09:41:05;;;;;;;6.40;5.70;;;20.40;99.90;;;;;;5050623;28;20492;-49
2022/05/21 09:46:23;;;;;;;3.93;3.57;;;20.20;99.90;;;;;;5054488;28;20424;-45
2022/05/21 09:48:52;;;;;;;3.70;2.90;;;20.20;99.90;;;;;;5054232;28;20524;-46
2022/05/21 09:51:29;;;;;;;5.97;3.37;;;20.20;99.90;;;;;;5054253;28;20857;-45
2022/05/21 09:53:57;;;;;;;2.90;1.97;;;20.30;99.90;;;;;;5054376;28;20444;-44
2022/05/21 09:56:27;;;;;;;4.17;2.57;;;20.30;99.90;;;;;;5054007;28;20471;-45
2022/05/21 09:59:11;;;;;;;3.07;2.00;;;20.40;99.90;;;;;;5054057;28;20528;-41
2022/05/21 10:01:40;;;;;;;3.90;2.23;;;20.50;99.90;;;;;;5054108;28;20998;-45
2022/05/21 10:04:19;;;;;;;4.43;2.90;;;20.50;99.90;;;;;;5054254;28;20491;-46
2022/05/21 10:06:52;;;;;;;4.47;2.90;;;20.70;99.90;;;;;;5054041;28;20472;-45
2022/05/21 10:12:14;;;;;;;3.40;3.10;;;20.70;99.90;;;;;;5054113;28;21024;-45
2022/05/21 10:14:45;;;;;;;10.27;4.53;;;20.60;99.90;;;;;;5054025;28;20457;-45
2022/05/21 10:17:21;;;;;;;4.80;3.80;;;20.80;99.90;;;;;;5053800;28;21074;-45
2022/05/21 10:19:55;;;;;;;8.63;5.70;;;20.90;99.90;;;;;;5053539;28;20798;-45
2022/05/21 10:22:38;;;;;;;4.73;3.90;;;21.10;99.90;;;;;;5053363;28;20452;-45
2022/05/21 10:25:08;;;;;;;4.67;3.80;;;20.90;99.90;;;;;;5052906;28;20555;-44
2022/05/21 10:28:03;;;;;;;6.30;4.83;;;20.80;99.90;;;;;;5053371;28;20437;-45
2022/05/21 10:30:38;;;;;;;3.90;3.50;;;20.80;99.90;;;;;;5053519;28;20451;-45
2022/05/21 10:33:25;;;;;;;4.83;3.60;;;20.90;99.90;;;;;;5053957;28;20847;-45
2022/05/21 10:36:01;;;;;;;3.83;3.47;;;21.10;99.90;;;;;;5053368;28;20525;-45
2022/05/21 10:39:02;;;;;;;8.77;4.07;;;21.10;99.90;;;;;;5053732;28;20552;-45
2022/05/21 10:41:38;;;;;;;3.47;3.17;;;21.30;99.90;;;;;;5053289;28;20933;-45
2022/05/21 10:44:19;;;;;;;4.00;3.67;;;21.30;99.90;;;;;;5053521;28;20448;-48
2022/05/21 10:46:53;;;;;;;4.10;3.70;;;21.20;99.90;;;;;;5053374;28;20528;-47
2022/05/21 10:50:05;;;;;;;4.40;3.50;;;21.40;99.90;;;;;;5053127;28;20480;-45
2022/05/21 10:52:48;;;;;;;4.40;4.00;;;21.40;99.90;;;;;;5035699;28;20478;-45
2022/05/21 10:55:22;;;;;;;4.90;3.17;;;21.30;99.90;;;;;;5053298;28;20461;-44
2022/05/21 10:58:09;;;;;;;4.83;4.30;;;21.20;99.90;;;;;;5053165;28;20560;-45
2022/05/21 11:00:47;;;;;;;6.00;4.07;;;21.10;99.90;;;;;;5052872;28;20510;-43
2022/05/21 11:03:50;;;;;;;3.20;2.90;;;21.00;99.90;;;;;;5052995;28;20467;-49
2022/05/21 11:06:25;;;;;;;4.40;4.00;;;21.00;99.90;;;;;;5047677;28;20477;-48
2022/05/21 11:09:06;;;;;;;5.87;3.93;;;21.00;99.90;;;;;;5052762;28;20437;-45
2022/05/21 11:11:44;;;;;;;4.33;3.90;;;21.00;99.90;;;;;;5052754;28;20452;-45
2022/05/21 11:14:16;;;;;;;3.93;3.53;;;21.10;99.90;;;;;;5052836;28;20473;-48
2022/05/21 11:16:50;;;;;;;2.20;2.00;;;21.30;99.90;;;;;;5052891;28;20522;-44
2022/05/21 11:19:22;;;;;;;3.50;3.20;;;21.50;99.90;;;;;;5052000;28;20478;-45
2022/05/21 11:21:54;;;;;;;4.97;3.50;;;21.70;99.90;;;;;;5052710;28;20467;-45
2022/05/21 11:24:30;;;;;;;4.37;3.30;;;21.80;99.90;;;;;;5052233;28;20461;-45
2022/05/21 11:27:00;;;;;;;3.80;3.30;;;22.00;99.90;;;;;;5052736;28;20491;-45
2022/05/21 11:29:36;;;;;;;5.87;2.70;;;22.10;99.90;;;;;;5052404;28;20886;-45
2022/05/21 11:37:43;;;;;;;2.63;2.00;;;22.30;99.90;;;;;;5052150;28;20468;-45
2022/05/21 11:40:49;;;;;;;1.93;1.73;;;22.40;99.90;;;;;;5052074;28;20472;-44
2022/05/21 11:43:17;;;;;;;2.87;1.93;;;22.20;99.90;;;;;;5052226;28;20828;-45
2022/05/21 11:46:00;;;;;;;2.60;2.20;;;22.10;99.90;;;;;;5052128;28;20488;-45
2022/05/21 11:48:30;;;;;;;4.90;2.37;;;22.10;99.90;;;;;;5052189;28;20441;-45
2022/05/21 11:51:27;;;;;;;2.90;2.50;;;22.10;99.90;;;;;;5051914;28;20446;-44
2022/05/21 11:53:55;;;;;;;2.13;1.80;;;22.20;99.90;;;;;;5010102;28;20446;-45
2022/05/21 11:56:23;;;;;;;4.10;1.90;;;22.20;99.90;;;;;;5042237;28;20480;-48
2022/05/21 11:59:17;;;;;;;2.40;2.17;;;22.20;99.90;;;;;;5051550;28;20507;-44
2022/05/21 12:01:58;;;;;;;2.97;2.37;;;22.00;99.90;;;;;;5052064;28;20433;-48
2022/05/21 12:06:52;;;;;;;4.87;2.50;;;22.20;99.90;;;;;;5105534;22;20550;-44
2022/05/21 12:09:27;;;;;;;2.67;2.47;;;22.40;99.90;;;;;;5051069;28;20226;-47
2022/05/21 12:12:17;;;;;;;2.97;2.07;;;22.40;99.90;;;;;;5051526;28;20441;-44
2022/05/21 12:14:51;;;;;;;2.77;2.23;;;22.60;99.90;;;;;;5051430;28;20440;-44
2022/05/21 12:17:38;;;;;;;3.63;2.13;;;22.50;99.90;;;;;;5051062;28;20619;-44
2022/05/21 12:20:09;;;;;;;4.27;2.33;;;22.40;99.90;;;;;;5051603;28;20475;-44
2022/05/21 12:22:56;;;;;;;3.00;2.70;;;22.40;99.90;;;;;;5051928;28;20441;-44
2022/05/21 12:25:54;;;;;;;2.57;2.30;;;22.40;99.90;;;;;;5051307;28;20476;-44
2022/05/21 12:28:22;;;;;;;3.17;2.87;;;22.30;99.90;;;;;;4970321;28;20484;-44
2022/05/21 12:30:59;;;;;;;2.93;2.63;;;22.20;99.90;;;;;;5033285;28;20489;-44
2022/05/21 12:33:38;;;;;;;3.50;3.20;;;22.20;99.90;;;;;;5051734;28;20496;-43
2022/05/21 12:36:13;;;;;;;3.40;2.90;;;22.30;99.90;;;;;;5051261;28;20457;-44
2022/05/21 12:38:46;;;;;;;3.40;3.00;;;22.40;99.90;;;;;;5050970;28;20472;-48
2022/05/21 12:41:17;;;;;;;3.80;3.17;;;22.50;99.90;;;;;;5051234;28;20453;-44
2022/05/21 12:43:47;;;;;;;3.30;3.00;;;22.60;99.90;;;;;;5051509;28;21194;-43
2022/05/21 12:46:27;;;;;;;3.40;3.10;;;22.60;99.90;;;;;;5050940;28;20548;-44
2022/05/21 12:48:56;;;;;;;3.10;2.80;;;22.60;99.90;;;;;;5051441;28;20480;-45
2022/05/21 12:51:33;;;;;;;2.60;2.40;;;22.60;99.90;;;;;;5051125;28;20969;-44
2022/05/21 12:54:04;;;;;;;5.27;3.50;;;22.60;99.90;;;;;;5051207;28;20452;-44
2022/05/21 12:56:33;;;;;;;3.83;3.33;;;22.70;99.90;;;;;;5050965;28;20469;-44
2022/05/21 12:59:06;;;;;;;3.87;3.00;;;22.90;99.90;;;;;;5050459;28;20989;-44
2022/05/21 13:01:34;;;;;;;3.93;3.20;;;23.00;99.90;;;;;;5050969;28;20452;-44
2022/05/21 13:04:02;;;;;;;4.30;3.10;;;23.10;99.90;;;;;;5051180;28;20468;-45
2022/05/21 13:06:32;;;;;;;4.70;3.67;;;23.10;99.90;;;;;;5051021;28;21008;-44
2022/05/21 13:09:04;;;;;;;3.47;3.10;;;23.10;99.90;;;;;;5050890;28;20441;-44
2022/05/21 13:11:40;;;;;;;10.90;4.00;;;23.00;99.90;;;;;;5050877;28;20925;-45
2022/05/21 13:14:12;;;;;;;3.80;3.50;;;22.90;99.90;;;;;;5050897;28;20449;-44
2022/05/21 13:16:50;;;;;;;4.50;3.47;;;22.90;99.90;;;;;;5051589;28;20461;-44
2022/05/21 13:19:44;;;;;;;6.87;4.10;;;22.90;99.90;;;;;;5054241;28;20509;-47
2022/05/21 13:22:20;;;;;;;4.50;4.10;;;22.90;99.90;;;;;;5054894;28;20452;-48
2022/05/21 13:24:55;;;;;;;3.20;2.60;;;23.00;99.90;;;;;;5055037;28;20496;-44
2022/05/21 13:27:24;;;;;;;3.67;3.37;;;23.00;99.90;;;;;;5054968;28;20441;-45
2022/05/21 13:29:53;;;;;;;4.13;3.47;;;22.90;99.90;;;;;;5054401;28;20441;-44
2022/05/21 13:32:25;;;;;;;4.20;3.33;;;22.90;99.90;;;;;;5054509;28;20475;-44
2022/05/21 13:34:54;;;;;;;6.03;4.20;;;22.90;99.90;;;;;;5054584;28;20476;-46
2022/05/21 13:37:28;;;;;;;3.80;3.40;;;23.00;99.90;;;;;;5054780;28;20946;-44
2022/05/21 13:40:06;;;;;;;3.27;2.97;;;23.00;99.90;;;;;;5054324;28;20475;-44